Time;durP1;ratioP1;P1;durP2;ratioP2;P2;SDS_P1;SDS_P2;PMS_P1;PMS_P2;Temp;Humidity;BMP_temperature;BMP_pressure;BME280_temperature;BME280_humidity;BME280_pressure;Samples;Min_cycle;Max_cycle;Signal;HPM_P1;HPM_P2
2023/05/20 00:01:00;;;;;;;2.60;1.52;;;;;;;;;;2091494;28;20401;-63
2023/05/20 00:02:19;;;;;;;5.40;1.80;;;;;;;;;;2091921;28;20029;-62
2023/05/20 00:03:38;;;;;;;4.85;1.55;;;;;;;;;;2091283;28;20104;-62
2023/05/20 00:04:57;;;;;;;3.10;1.40;;;;;;;;;;2096554;28;20544;-62
2023/05/20 00:06:16;;;;;;;3.72;1.88;;;;;;;;;;2093329;28;20042;-62
2023/05/20 00:07:35;;;;;;;2.47;1.50;;;;;;;;;;2090857;28;20020;-62
2023/05/20 00:08:54;;;;;;;2.00;1.40;;;;;;;;;;2092342;28;20021;-62
2023/05/20 00:10:14;;;;;;;3.65;1.45;;;;;;;;;;2095120;28;20029;-62
2023/05/20 00:11:32;;;;;;;2.17;1.35;;;;;;;;;;2091606;28;20029;-62
2023/05/20 00:12:51;;;;;;;6.40;1.65;;;;;;;;;;2091211;28;20028;-63
2023/05/20 00:14:11;;;;;;;3.38;1.85;;;;;;;;;;2090940;28;20037;-63
2023/05/20 00:15:29;;;;;;;5.80;1.48;;;;;;;;;;2090034;28;20032;-62
2023/05/20 00:16:48;;;;;;;5.38;1.77;;;;;;;;;;2093100;28;20037;-63
2023/05/20 00:18:07;;;;;;;2.90;1.48;;;;;;;;;;2093882;28;20037;-63
2023/05/20 00:19:26;;;;;;;6.30;2.00;;;;;;;;;;2089517;28;20045;-62
2023/05/20 00:20:45;;;;;;;4.00;1.60;;;;;;;;;;2094092;28;20036;-63
2023/05/20 00:22:04;;;;;;;5.75;2.00;;;;;;;;;;2093828;28;20525;-63
2023/05/20 00:23:23;;;;;;;5.13;2.15;;;;;;;;;;2091358;28;20489;-63
2023/05/20 00:24:42;;;;;;;6.68;1.80;;;;;;;;;;2093100;28;20032;-63
2023/05/20 00:26:01;;;;;;;4.10;1.60;;;;;;;;;;2093605;28;20032;-62
2023/05/20 00:27:20;;;;;;;4.35;1.65;;;;;;;;;;2091756;28;20386;-62
2023/05/20 00:28:39;;;;;;;3.13;1.83;;;;;;;;;;2094739;28;20111;-62
2023/05/20 00:29:58;;;;;;;3.58;1.35;;;;;;;;;;2092613;28;20084;-62
2023/05/20 00:31:16;;;;;;;3.47;1.52;;;;;;;;;;2091098;28;20120;-63
2023/05/20 00:32:35;;;;;;;2.92;1.52;;;;;;;;;;2090903;28;20482;-63
2023/05/20 00:33:54;;;;;;;3.70;1.63;;;;;;;;;;2091125;28;20037;-64
2023/05/20 00:35:13;;;;;;;4.68;1.80;;;;;;;;;;2092327;28;20037;-63
2023/05/20 00:36:33;;;;;;;4.07;1.95;;;;;;;;;;2092334;28;20402;-63
2023/05/20 00:37:52;;;;;;;3.10;1.75;;;;;;;;;;2089910;28;20033;-63
2023/05/20 00:39:11;;;;;;;6.35;1.90;;;;;;;;;;2090711;28;20041;-63
2023/05/20 00:40:30;;;;;;;7.57;1.70;;;;;;;;;;2092212;28;20040;-63
2023/05/20 00:41:49;;;;;;;5.20;1.98;;;;;;;;;;2091298;28;20021;-65
2023/05/20 00:43:08;;;;;;;3.10;1.55;;;;;;;;;;2092321;28;20029;-64
2023/05/20 00:44:27;;;;;;;4.95;1.80;;;;;;;;;;2093512;28;20028;-64
2023/05/20 00:45:46;;;;;;;2.53;1.80;;;;;;;;;;2091053;28;20029;-64
2023/05/20 00:47:05;;;;;;;8.48;1.98;;;;;;;;;;2092870;28;20037;-64
2023/05/20 00:48:24;;;;;;;5.07;1.80;;;;;;;;;;2095082;28;20428;-64
2023/05/20 00:49:44;;;;;;;4.00;1.85;;;;;;;;;;2090154;28;20029;-63
2023/05/20 00:51:03;;;;;;;6.53;2.15;;;;;;;;;;2088706;28;20036;-63
2023/05/20 00:52:23;;;;;;;3.90;1.55;;;;;;;;;;2094564;28;20025;-64
2023/05/20 00:53:42;;;;;;;7.20;2.08;;;;;;;;;;2092061;28;20041;-64
2023/05/20 00:55:02;;;;;;;4.65;2.20;;;;;;;;;;2093247;28;20032;-64
2023/05/20 00:56:21;;;;;;;1.73;1.63;;;;;;;;;;2092004;28;20032;-64
2023/05/20 00:57:40;;;;;;;3.47;1.65;;;;;;;;;;2091052;28;20064;-64
2023/05/20 00:58:59;;;;;;;2.58;1.50;;;;;;;;;;2091351;28;21744;-64
2023/05/20 01:00:18;;;;;;;5.10;1.70;;;;;;;;;;2090931;28;20044;-64
2023/05/20 01:01:37;;;;;;;3.25;1.80;;;;;;;;;;2094064;28;20040;-64
2023/05/20 01:02:57;;;;;;;2.28;1.70;;;;;;;;;;2091116;28;20394;-63
2023/05/20 01:04:16;;;;;;;5.45;1.73;;;;;;;;;;2091241;28;20037;-63
2023/05/20 01:05:35;;;;;;;6.57;2.10;;;;;;;;;;2088694;28;20024;-63
2023/05/20 01:06:54;;;;;;;3.00;1.73;;;;;;;;;;2094008;28;20048;-63
2023/05/20 01:08:14;;;;;;;4.60;2.00;;;;;;;;;;2092996;28;20036;-66
2023/05/20 01:09:33;;;;;;;2.05;1.73;;;;;;;;;;2094610;28;20111;-63
2023/05/20 01:10:57;;;;;;;3.65;1.70;;;;;;;;;;2090236;28;20044;-63
2023/05/20 01:12:19;;;;;;;4.20;1.92;;;;;;;;;;2092112;28;20075;-63
2023/05/20 01:13:42;;;;;;;6.18;1.60;;;;;;;;;;2088344;28;20024;-63
2023/05/20 01:15:04;;;;;;;4.78;1.60;;;;;;;;;;2085315;28;20041;-63
2023/05/20 01:16:23;;;;;;;5.20;1.58;;;;;;;;;;2092723;28;20033;-63
2023/05/20 01:17:45;;;;;;;3.08;1.52;;;;;;;;;;2090260;28;20036;-63
2023/05/20 01:19:09;;;;;;;3.08;1.58;;;;;;;;;;2092139;28;20052;-64
2023/05/20 01:20:31;;;;;;;4.55;2.30;;;;;;;;;;2093973;28;20029;-63
2023/05/20 01:21:52;;;;;;;2.35;1.65;;;;;;;;;;2092898;28;20025;-64
2023/05/20 01:23:11;;;;;;;3.90;1.42;;;;;;;;;;2089227;28;20037;-63
2023/05/20 01:24:29;;;;;;;5.47;2.00;;;;;;;;;;2091132;28;20485;-63
2023/05/20 01:25:48;;;;;;;3.70;1.50;;;;;;;;;;2093381;28;20081;-63
2023/05/20 01:27:09;;;;;;;4.88;2.00;;;;;;;;;;2089625;28;20393;-63
2023/05/20 01:28:29;;;;;;;4.07;1.80;;;;;;;;;;2090324;28;20037;-63
2023/05/20 01:29:51;;;;;;;4.18;1.70;;;;;;;;;;2095172;28;20029;-63
2023/05/20 01:31:13;;;;;;;4.28;1.63;;;;;;;;;;2092520;28;20028;-63
2023/05/20 01:32:41;;;;;;;5.88;2.13;;;;;;;;;;2093033;28;20029;-63
2023/05/20 01:34:00;;;;;;;7.80;2.22;;;;;;;;;;2093931;28;20033;-63
2023/05/20 01:35:21;;;;;;;4.43;1.70;;;;;;;;;;2088535;28;20068;-63
2023/05/20 01:36:41;;;;;;;8.00;1.85;;;;;;;;;;2092458;28;20052;-63
2023/05/20 01:38:00;;;;;;;3.90;1.70;;;;;;;;;;2093045;28;20507;-63
2023/05/20 01:39:19;;;;;;;5.13;2.08;;;;;;;;;;2094307;28;20067;-63
2023/05/20 01:40:40;;;;;;;7.50;2.25;;;;;;;;;;2090654;28;20064;-63
2023/05/20 01:42:01;;;;;;;7.60;2.45;;;;;;;;;;2091021;28;20464;-63
2023/05/20 01:43:19;;;;;;;3.58;1.90;;;;;;;;;;2090938;28;20679;-64
2023/05/20 01:44:38;;;;;;;3.78;1.80;;;;;;;;;;2092667;28;20025;-64
2023/05/20 01:45:57;;;;;;;4.88;1.98;;;;;;;;;;2090521;28;20100;-64
2023/05/20 01:47:16;;;;;;;13.15;2.08;;;;;;;;;;2091538;28;20033;-64
2023/05/20 01:48:37;;;;;;;8.88;2.08;;;;;;;;;;2090256;28;20377;-64
2023/05/20 01:49:55;;;;;;;3.70;1.80;;;;;;;;;;2083555;28;20434;-64
2023/05/20 01:51:15;;;;;;;3.25;1.92;;;;;;;;;;2089784;28;20425;-63
2023/05/20 01:52:35;;;;;;;3.33;1.73;;;;;;;;;;2094101;28;20667;-63
2023/05/20 01:53:53;;;;;;;6.05;1.90;;;;;;;;;;2092046;28;20076;-64
2023/05/20 01:55:12;;;;;;;3.67;1.83;;;;;;;;;;2089854;28;20413;-63
2023/05/20 01:56:31;;;;;;;4.97;1.63;;;;;;;;;;2094328;28;20058;-63
2023/05/20 01:57:50;;;;;;;3.88;1.60;;;;;;;;;;2092890;28;20044;-63
2023/05/20 01:59:09;;;;;;;4.93;1.85;;;;;;;;;;2091003;28;20455;-63
2023/05/20 02:00:29;;;;;;;6.72;2.15;;;;;;;;;;2092465;28;20052;-63
2023/05/20 02:01:48;;;;;;;3.05;1.67;;;;;;;;;;2092985;28;20052;-62
2023/05/20 02:03:07;;;;;;;3.63;2.00;;;;;;;;;;2093260;28;20424;-62
2023/05/20 02:04:26;;;;;;;7.80;1.70;;;;;;;;;;2090931;28;20103;-63
2023/05/20 02:05:45;;;;;;;5.65;2.10;;;;;;;;;;2088969;28;20102;-63
2023/05/20 02:07:03;;;;;;;2.33;1.63;;;;;;;;;;2089720;28;20605;-63
2023/05/20 02:08:22;;;;;;;2.65;1.63;;;;;;;;;;2090567;28;20033;-63
2023/05/20 02:09:41;;;;;;;5.20;2.00;;;;;;;;;;2088093;28;20036;-62
2023/05/20 02:11:00;;;;;;;7.38;2.00;;;;;;;;;;2090212;28;20037;-63
2023/05/20 02:12:19;;;;;;;3.10;1.90;;;;;;;;;;2090696;28;20033;-65
2023/05/20 02:13:38;;;;;;;3.78;1.92;;;;;;;;;;2092096;28;20028;-63
2023/05/20 02:14:57;;;;;;;5.68;1.95;;;;;;;;;;2093414;28;20405;-63
2023/05/20 02:16:16;;;;;;;1.83;1.60;;;;;;;;;;2094211;28;20025;-63
2023/05/20 02:17:36;;;;;;;3.58;2.13;;;;;;;;;;2094283;28;20087;-63
2023/05/20 02:18:57;;;;;;;4.60;1.60;;;;;;;;;;2090555;28;20021;-62
2023/05/20 02:20:16;;;;;;;4.65;1.80;;;;;;;;;;2089904;28;20033;-62
2023/05/20 02:21:35;;;;;;;4.78;1.55;;;;;;;;;;2087069;28;20549;-63
2023/05/20 02:22:54;;;;;;;5.88;2.13;;;;;;;;;;2090800;28;20029;-62
2023/05/20 02:24:14;;;;;;;8.30;2.20;;;;;;;;;;2088919;28;20029;-61
2023/05/20 02:25:33;;;;;;;4.68;1.52;;;;;;;;;;2091972;28;20028;-62
2023/05/20 02:26:53;;;;;;;6.47;1.98;;;;;;;;;;2092361;28;20024;-62
2023/05/20 02:28:12;;;;;;;6.07;2.28;;;;;;;;;;2090283;28;20016;-62
2023/05/20 02:29:31;;;;;;;2.85;1.80;;;;;;;;;;2088511;28;20025;-62
2023/05/20 02:30:50;;;;;;;4.07;1.80;;;;;;;;;;2091502;28;20040;-62
2023/05/20 02:32:10;;;;;;;3.15;1.73;;;;;;;;;;2089328;28;20032;-62
2023/05/20 02:33:29;;;;;;;5.10;2.15;;;;;;;;;;2088011;28;20040;-63
2023/05/20 02:34:48;;;;;;;4.60;1.83;;;;;;;;;;2089973;28;20138;-62
2023/05/20 02:36:07;;;;;;;2.70;1.75;;;;;;;;;;2092673;28;20029;-62
2023/05/20 02:37:26;;;;;;;7.53;1.40;;;;;;;;;;2092438;28;20024;-63
2023/05/20 02:38:45;;;;;;;3.03;1.65;;;;;;;;;;2092915;28;20549;-62
2023/05/20 02:40:05;;;;;;;3.25;1.85;;;;;;;;;;2093544;28;20493;-62
2023/05/20 02:41:24;;;;;;;4.00;1.70;;;;;;;;;;2094543;28;20033;-62
2023/05/20 02:42:43;;;;;;;4.88;1.30;;;;;;;;;;2091275;28;20506;-62
2023/05/20 02:44:02;;;;;;;2.67;1.45;;;;;;;;;;2089127;28;20025;-62
2023/05/20 02:45:21;;;;;;;4.35;1.60;;;;;;;;;;2087656;28;20033;-62
2023/05/20 02:46:40;;;;;;;4.95;1.50;;;;;;;;;;2088973;28;20028;-63
2023/05/20 02:47:59;;;;;;;3.33;1.48;;;;;;;;;;2091202;28;20037;-62
2023/05/20 02:49:18;;;;;;;5.53;1.40;;;;;;;;;;2092965;28;20029;-62
2023/05/20 02:50:38;;;;;;;6.15;1.63;;;;;;;;;;2091712;28;20107;-63
2023/05/20 02:51:57;;;;;;;2.10;1.00;;;;;;;;;;2088864;28;20028;-62
2023/05/20 02:53:16;;;;;;;6.38;1.30;;;;;;;;;;2092019;28;20053;-62
2023/05/20 02:54:35;;;;;;;7.28;1.55;;;;;;;;;;2092892;28;20029;-62
2023/05/20 02:55:54;;;;;;;2.88;1.40;;;;;;;;;;2091092;28;20103;-63
2023/05/20 02:57:13;;;;;;;3.72;1.40;;;;;;;;;;2092587;28;20029;-62
2023/05/20 02:58:34;;;;;;;2.47;1.42;;;;;;;;;;2091965;28;20029;-62
2023/05/20 02:59:54;;;;;;;4.60;1.40;;;;;;;;;;2093641;28;20076;-62
2023/05/20 03:01:13;;;;;;;6.22;1.40;;;;;;;;;;2092910;28;20577;-62
2023/05/20 03:02:32;;;;;;;6.78;1.88;;;;;;;;;;2093594;28;20044;-62
2023/05/20 03:03:51;;;;;;;5.47;1.48;;;;;;;;;;2092711;28;20029;-62
2023/05/20 03:05:11;;;;;;;5.43;1.58;;;;;;;;;;2089890;28;20029;-62
2023/05/20 03:06:30;;;;;;;2.83;1.30;;;;;;;;;;2090750;28;20048;-62
2023/05/20 03:07:49;;;;;;;4.28;1.55;;;;;;;;;;2091599;28;20096;-62
2023/05/20 03:09:09;;;;;;;4.03;1.50;;;;;;;;;;2091980;28;20100;-62
2023/05/20 03:10:28;;;;;;;5.85;1.67;;;;;;;;;;2091271;28;20475;-63
2023/05/20 03:11:47;;;;;;;4.20;1.48;;;;;;;;;;2092356;28;20040;-62
2023/05/20 03:13:08;;;;;;;1.65;1.35;;;;;;;;;;2087389;28;20041;-62
2023/05/20 03:14:27;;;;;;;1.35;1.20;;;;;;;;;;2091123;28;20025;-68
2023/05/20 03:15:46;;;;;;;3.17;1.42;;;;;;;;;;2090160;28;20142;-63
2023/05/20 03:17:05;;;;;;;6.22;2.08;;;;;;;;;;2092339;28;20036;-62
2023/05/20 03:18:24;;;;;;;2.83;1.67;;;;;;;;;;2090991;28;20029;-63
2023/05/20 03:19:43;;;;;;;4.32;1.50;;;;;;;;;;2093177;28;20067;-63
2023/05/20 03:21:01;;;;;;;2.90;1.23;;;;;;;;;;2091350;28;20068;-62
2023/05/20 03:22:20;;;;;;;4.22;1.35;;;;;;;;;;2093389;28;20060;-62
2023/05/20 03:23:39;;;;;;;4.78;1.50;;;;;;;;;;2090707;28;20069;-63
2023/05/20 03:24:59;;;;;;;4.43;1.38;;;;;;;;;;2091880;28;20029;-63
2023/05/20 03:26:18;;;;;;;4.00;1.25;;;;;;;;;;2091022;28;20021;-64
2023/05/20 03:27:37;;;;;;;5.10;1.45;;;;;;;;;;2092252;28;20025;-64
2023/05/20 03:28:59;;;;;;;3.67;1.42;;;;;;;;;;2089371;28;20028;-64
2023/05/20 03:30:18;;;;;;;2.13;1.35;;;;;;;;;;2089931;28;20065;-64
2023/05/20 03:31:37;;;;;;;3.10;1.35;;;;;;;;;;2088524;28;20918;-64
2023/05/20 03:32:57;;;;;;;6.40;1.98;;;;;;;;;;2089702;28;20072;-66
2023/05/20 03:34:16;;;;;;;2.47;1.25;;;;;;;;;;2088919;28;20029;-64
2023/05/20 03:35:35;;;;;;;2.45;1.30;;;;;;;;;;2094666;28;20032;-64
2023/05/20 03:36:54;;;;;;;5.72;1.40;;;;;;;;;;2089480;28;20024;-64
2023/05/20 03:38:13;;;;;;;2.90;1.30;;;;;;;;;;2091599;28;20108;-64
2023/05/20 03:39:32;;;;;;;4.90;1.23;;;;;;;;;;2094237;28;20067;-64
2023/05/20 03:40:51;;;;;;;3.10;1.50;;;;;;;;;;2086575;28;20510;-65
2023/05/20 03:42:10;;;;;;;3.63;1.70;;;;;;;;;;2091966;28;20120;-64
2023/05/20 03:43:29;;;;;;;3.80;1.20;;;;;;;;;;2092364;28;20020;-63
2023/05/20 03:44:48;;;;;;;3.33;1.58;;;;;;;;;;2091615;28;20037;-63
2023/05/20 03:46:07;;;;;;;2.10;1.45;;;;;;;;;;2089866;28;20029;-64
2023/05/20 03:47:26;;;;;;;2.78;1.10;;;;;;;;;;2091632;28;20390;-64
2023/05/20 03:48:45;;;;;;;1.27;1.08;;;;;;;;;;2089295;28;20028;-64
2023/05/20 03:50:05;;;;;;;4.47;1.40;;;;;;;;;;2093603;28;20032;-64
2023/05/20 03:51:24;;;;;;;3.95;1.15;;;;;;;;;;2091482;28;20052;-64
2023/05/20 03:52:43;;;;;;;2.38;1.30;;;;;;;;;;2091503;28;20032;-64
2023/05/20 03:54:03;;;;;;;3.03;1.08;;;;;;;;;;2090627;28;20103;-64
2023/05/20 03:55:23;;;;;;;3.22;1.50;;;;;;;;;;2091630;28;20103;-64
2023/05/20 03:56:42;;;;;;;2.72;1.10;;;;;;;;;;2090660;28;20525;-65
2023/05/20 03:58:01;;;;;;;1.38;1.27;;;;;;;;;;2087949;28;20044;-63
2023/05/20 03:59:21;;;;;;;5.97;1.33;;;;;;;;;;2090728;28;20028;-63
2023/05/20 04:00:40;;;;;;;4.38;1.42;;;;;;;;;;2088717;28;20032;-63
2023/05/20 04:01:59;;;;;;;5.07;1.40;;;;;;;;;;2091863;28;20033;-63
2023/05/20 04:03:18;;;;;;;3.92;1.27;;;;;;;;;;2088153;28;20046;-64
2023/05/20 04:04:37;;;;;;;1.20;0.85;;;;;;;;;;2085516;28;20022;-63
2023/05/20 04:05:56;;;;;;;3.80;1.25;;;;;;;;;;2089798;28;20025;-64
2023/05/20 04:07:15;;;;;;;1.25;1.00;;;;;;;;;;2092894;28;20032;-63
2023/05/20 04:08:35;;;;;;;4.47;1.17;;;;;;;;;;2091389;28;20374;-63
2023/05/20 04:09:54;;;;;;;4.28;1.50;;;;;;;;;;2090974;28;20020;-63
2023/05/20 04:11:13;;;;;;;5.95;1.35;;;;;;;;;;2091241;28;20398;-64
2023/05/20 04:12:34;;;;;;;2.40;1.20;;;;;;;;;;2085755;28;20032;-63
2023/05/20 04:13:53;;;;;;;2.90;1.33;;;;;;;;;;2090151;28;20519;-63
2023/05/20 04:15:13;;;;;;;3.10;1.38;;;;;;;;;;2088200;28;20041;-63
2023/05/20 04:16:32;;;;;;;1.80;1.20;;;;;;;;;;2088882;28;20510;-63
2023/05/20 04:17:51;;;;;;;2.58;1.17;;;;;;;;;;2089855;28;20072;-63
2023/05/20 04:19:11;;;;;;;1.65;0.95;;;;;;;;;;2087062;28;20037;-63
2023/05/20 04:20:30;;;;;;;2.28;1.10;;;;;;;;;;2088616;28;20024;-63
2023/05/20 04:21:49;;;;;;;2.45;1.10;;;;;;;;;;2092699;28;20037;-63
2023/05/20 04:23:08;;;;;;;2.72;1.10;;;;;;;;;;2089796;28;20108;-63
2023/05/20 04:24:26;;;;;;;3.97;0.95;;;;;;;;;;2090007;28;20033;-63
2023/05/20 04:25:45;;;;;;;2.50;1.10;;;;;;;;;;2094337;28;20443;-63
2023/05/20 04:27:04;;;;;;;0.95;0.85;;;;;;;;;;2093621;28;20086;-63
2023/05/20 04:28:26;;;;;;;5.80;1.08;;;;;;;;;;2090231;28;20510;-63
2023/05/20 04:29:46;;;;;;;2.10;0.85;;;;;;;;;;2088576;28;20029;-63
2023/05/20 04:31:05;;;;;;;2.15;0.90;;;;;;;;;;2092195;28;20394;-64
2023/05/20 04:32:25;;;;;;;1.30;0.85;;;;;;;;;;2091731;28;20029;-63
2023/05/20 04:33:45;;;;;;;3.13;1.30;;;;;;;;;;2088410;28;20025;-63
2023/05/20 04:35:10;;;;;;;2.60;0.90;;;;;;;;;;2087396;28;20028;-63
2023/05/20 04:36:29;;;;;;;3.70;1.05;;;;;;;;;;2090688;28;20036;-63
2023/05/20 04:37:49;;;;;;;2.58;0.77;;;;;;;;;;2091140;28;20115;-65
2023/05/20 04:39:08;;;;;;;2.85;1.20;;;;;;;;;;2089876;28;20116;-63
2023/05/20 04:40:27;;;;;;;1.50;1.02;;;;;;;;;;2087674;28;20568;-63
2023/05/20 04:41:48;;;;;;;1.92;0.93;;;;;;;;;;2090605;28;20068;-63
2023/05/20 04:43:06;;;;;;;2.88;0.80;;;;;;;;;;2090870;28;20097;-63
2023/05/20 04:44:25;;;;;;;3.78;1.10;;;;;;;;;;2089294;28;20028;-63
2023/05/20 04:45:44;;;;;;;4.60;0.90;;;;;;;;;;2091123;28;20480;-63
2023/05/20 04:47:03;;;;;;;3.97;1.30;;;;;;;;;;2095518;28;20059;-63
2023/05/20 04:48:22;;;;;;;1.92;1.10;;;;;;;;;;2091809;28;20103;-63
2023/05/20 04:49:41;;;;;;;1.30;0.98;;;;;;;;;;2095712;28;20042;-63
2023/05/20 04:51:01;;;;;;;1.10;0.90;;;;;;;;;;2092806;28;20028;-64
2023/05/20 04:52:20;;;;;;;3.70;1.23;;;;;;;;;;2093262;28;20036;-64
2023/05/20 04:53:39;;;;;;;1.95;1.00;;;;;;;;;;2090502;28;20033;-64
2023/05/20 04:55:00;;;;;;;1.80;1.15;;;;;;;;;;2090192;28;20107;-64
2023/05/20 04:56:19;;;;;;;3.47;1.02;;;;;;;;;;2093695;28;20477;-64
2023/05/20 04:57:40;;;;;;;1.85;0.82;;;;;;;;;;2088611;28;20036;-64
2023/05/20 04:58:59;;;;;;;1.25;0.90;;;;;;;;;;2089862;28;20024;-64
2023/05/20 05:00:18;;;;;;;2.58;1.08;;;;;;;;;;2089287;28;20029;-64
2023/05/20 05:01:37;;;;;;;1.63;0.75;;;;;;;;;;2089761;28;20029;-65
2023/05/20 05:02:56;;;;;;;1.73;0.90;;;;;;;;;;2090016;28;20987;-63
2023/05/20 05:04:15;;;;;;;2.15;1.10;;;;;;;;;;2090794;28;20024;-64
2023/05/20 05:05:35;;;;;;;1.63;1.00;;;;;;;;;;2088277;28;20030;-63
2023/05/20 05:06:54;;;;;;;2.08;0.77;;;;;;;;;;2090377;28;20658;-64
2023/05/20 05:08:14;;;;;;;1.63;1.00;;;;;;;;;;2090900;28;20025;-64
2023/05/20 05:09:32;;;;;;;0.95;0.88;;;;;;;;;;2092741;28;20522;-64
2023/05/20 05:10:51;;;;;;;2.67;1.42;;;;;;;;;;2092044;28;20032;-64
2023/05/20 05:12:10;;;;;;;1.45;1.00;;;;;;;;;;2093333;28;20752;-63
2023/05/20 05:13:29;;;;;;;3.47;0.90;;;;;;;;;;2089464;28;20040;-64
2023/05/20 05:14:48;;;;;;;4.47;0.93;;;;;;;;;;2090126;28;20028;-68
2023/05/20 05:16:07;;;;;;;0.88;0.68;;;;;;;;;;2091569;28;20025;-63
2023/05/20 05:17:27;;;;;;;3.53;1.10;;;;;;;;;;2091164;28;20090;-64
2023/05/20 05:18:46;;;;;;;2.50;0.93;;;;;;;;;;2090830;28;20029;-63
2023/05/20 05:20:05;;;;;;;1.27;0.90;;;;;;;;;;2091056;28;20041;-63
2023/05/20 05:21:24;;;;;;;3.45;1.20;;;;;;;;;;2089629;28;20033;-64
2023/05/20 05:22:43;;;;;;;2.97;1.08;;;;;;;;;;2091439;28;20029;-63
2023/05/20 05:24:02;;;;;;;5.68;1.20;;;;;;;;;;2088763;28;20111;-63
2023/05/20 05:25:21;;;;;;;3.70;1.45;;;;;;;;;;2092552;28;20040;-64
2023/05/20 05:26:41;;;;;;;2.08;1.05;;;;;;;;;;2091073;28;20037;-63
2023/05/20 05:27:59;;;;;;;3.30;1.05;;;;;;;;;;2090774;28;20575;-63
2023/05/20 05:29:18;;;;;;;1.58;1.02;;;;;;;;;;2092821;28;20107;-63
2023/05/20 05:30:37;;;;;;;1.63;0.80;;;;;;;;;;2088650;28;20029;-63
2023/05/20 05:31:56;;;;;;;4.35;1.00;;;;;;;;;;2091694;28;20021;-63
2023/05/20 05:33:16;;;;;;;1.95;0.80;;;;;;;;;;2091669;28;20505;-63
2023/05/20 05:34:35;;;;;;;2.25;1.13;;;;;;;;;;2092343;28;20476;-64
2023/05/20 05:35:55;;;;;;;1.63;1.00;;;;;;;;;;2089265;28;20029;-63
2023/05/20 05:37:14;;;;;;;3.25;1.02;;;;;;;;;;2092756;28;20029;-63
2023/05/20 05:38:33;;;;;;;2.60;1.20;;;;;;;;;;2091168;28;20028;-62
2023/05/20 05:39:52;;;;;;;4.15;0.95;;;;;;;;;;2090374;28;20950;-62
2023/05/20 05:41:11;;;;;;;1.15;0.68;;;;;;;;;;2089584;28;20501;-63
2023/05/20 05:42:30;;;;;;;1.10;1.00;;;;;;;;;;2090566;28;20029;-63
2023/05/20 05:43:49;;;;;;;3.53;1.08;;;;;;;;;;2085161;28;20014;-63
2023/05/20 05:45:09;;;;;;;2.80;1.00;;;;;;;;;;2088496;28;20017;-63
2023/05/20 05:46:28;;;;;;;2.42;1.08;;;;;;;;;;2088898;28;20021;-63
2023/05/20 05:47:47;;;;;;;2.53;0.90;;;;;;;;;;2092488;28;20024;-63
2023/05/20 05:49:06;;;;;;;2.17;0.93;;;;;;;;;;2091381;28;20025;-63
2023/05/20 05:50:25;;;;;;;2.78;1.02;;;;;;;;;;2087004;28;20139;-63
2023/05/20 05:51:44;;;;;;;2.03;1.00;;;;;;;;;;2088410;28;20025;-63
2023/05/20 05:53:03;;;;;;;1.92;1.05;;;;;;;;;;2089129;28;20041;-63
2023/05/20 05:54:21;;;;;;;2.72;1.13;;;;;;;;;;2091062;28;20033;-63
2023/05/20 05:55:40;;;;;;;1.52;1.00;;;;;;;;;;2088501;28;20037;-63
2023/05/20 05:56:59;;;;;;;1.10;0.88;;;;;;;;;;2092101;28;20844;-63
2023/05/20 05:58:18;;;;;;;1.42;0.82;;;;;;;;;;2093287;28;20025;-63
2023/05/20 05:59:37;;;;;;;4.03;0.85;;;;;;;;;;2089519;28;20482;-63
2023/05/20 06:00:56;;;;;;;1.65;1.08;;;;;;;;;;2087097;28;20439;-63
2023/05/20 06:02:15;;;;;;;1.65;0.98;;;;;;;;;;2085887;28;20029;-63
2023/05/20 06:03:34;;;;;;;2.92;1.10;;;;;;;;;;2092851;28;20024;-63
2023/05/20 06:04:53;;;;;;;2.13;0.95;;;;;;;;;;2091785;28;20107;-63
2023/05/20 06:06:12;;;;;;;1.50;1.13;;;;;;;;;;2089686;28;20108;-63
2023/05/20 06:07:31;;;;;;;1.83;0.70;;;;;;;;;;2093725;28;20029;-63
2023/05/20 06:08:50;;;;;;;4.68;1.27;;;;;;;;;;2090724;28;20429;-62
2023/05/20 06:10:12;;;;;;;2.10;0.90;;;;;;;;;;2092094;28;20033;-63
2023/05/20 06:11:31;;;;;;;2.35;1.02;;;;;;;;;;2088513;28;20473;-63
2023/05/20 06:12:50;;;;;;;2.58;1.00;;;;;;;;;;2089544;28;20501;-64
2023/05/20 06:14:09;;;;;;;2.42;1.10;;;;;;;;;;2091025;28;20651;-63
2023/05/20 06:15:28;;;;;;;1.40;1.02;;;;;;;;;;2090620;28;20040;-63
2023/05/20 06:16:48;;;;;;;5.53;1.40;;;;;;;;;;2090583;28;20037;-63
2023/05/20 06:18:06;;;;;;;3.70;1.20;;;;;;;;;;2090983;28;20068;-63
2023/05/20 06:19:25;;;;;;;0.80;0.80;;;;;;;;;;2091901;28;20064;-63
2023/05/20 06:20:44;;;;;;;3.92;1.23;;;;;;;;;;2088868;28;20032;-63
2023/05/20 06:22:03;;;;;;;3.08;1.10;;;;;;;;;;2092363;28;20032;-63
2023/05/20 06:23:21;;;;;;;1.65;1.17;;;;;;;;;;2086160;28;20751;-62
2023/05/20 06:24:40;;;;;;;1.70;1.00;;;;;;;;;;2091983;28;20034;-63
2023/05/20 06:25:59;;;;;;;1.33;0.85;;;;;;;;;;2092967;28;20397;-62
2023/05/20 06:27:19;;;;;;;1.63;0.65;;;;;;;;;;2091885;28;20529;-63
2023/05/20 06:28:38;;;;;;;3.58;1.20;;;;;;;;;;2093935;28;20029;-63
2023/05/20 06:29:57;;;;;;;1.88;0.75;;;;;;;;;;2086921;28;20044;-62
2023/05/20 06:31:16;;;;;;;2.15;0.70;;;;;;;;;;2088586;28;20407;-63
2023/05/20 06:32:35;;;;;;;1.83;1.13;;;;;;;;;;2093919;28;20040;-62
2023/05/20 06:33:54;;;;;;;5.88;1.17;;;;;;;;;;2087857;28;20028;-62
2023/05/20 06:35:13;;;;;;;1.58;1.08;;;;;;;;;;2091379;28;20033;-64
2023/05/20 06:36:32;;;;;;;2.42;1.00;;;;;;;;;;2091106;28;20033;-62
2023/05/20 06:37:51;;;;;;;1.58;0.90;;;;;;;;;;2088141;28;20028;-62
2023/05/20 06:39:11;;;;;;;3.28;1.00;;;;;;;;;;2091528;28;20024;-63
2023/05/20 06:40:30;;;;;;;4.30;1.08;;;;;;;;;;2089761;28;20052;-63
2023/05/20 06:41:50;;;;;;;1.48;1.27;;;;;;;;;;2089140;28;20024;-63
2023/05/20 06:43:09;;;;;;;1.35;0.90;;;;;;;;;;2088408;28;20020;-64
2023/05/20 06:44:29;;;;;;;1.92;0.80;;;;;;;;;;2091929;28;20032;-62
2023/05/20 06:45:49;;;;;;;3.83;1.13;;;;;;;;;;2092774;28;20107;-62
2023/05/20 06:47:08;;;;;;;1.83;1.65;;;;;;;;;;2090571;28;21000;-62
2023/05/20 06:48:27;;;;;;;3.22;1.85;;;;;;;;;;2089043;28;20434;-63
2023/05/20 06:49:46;;;;;;;2.35;0.70;;;;;;;;;;2093200;28;20485;-64
2023/05/20 06:51:08;;;;;;;2.20;0.80;;;;;;;;;;2091329;28;20115;-65
2023/05/20 06:52:27;;;;;;;2.22;1.05;;;;;;;;;;2088041;28;20036;-63
2023/05/20 06:53:46;;;;;;;2.17;0.70;;;;;;;;;;2091257;28;20805;-62
2023/05/20 06:55:05;;;;;;;1.48;0.98;;;;;;;;;;2092988;28;20029;-63
2023/05/20 06:56:24;;;;;;;1.80;1.10;;;;;;;;;;2088084;28;20139;-63
2023/05/20 06:57:43;;;;;;;5.38;0.98;;;;;;;;;;2092456;28;20103;-64
2023/05/20 06:59:02;;;;;;;1.67;0.60;;;;;;;;;;2092722;28;20028;-67
2023/05/20 07:00:21;;;;;;;1.85;0.98;;;;;;;;;;2089050;28;20025;-63
2023/05/20 07:01:40;;;;;;;1.83;0.73;;;;;;;;;;2089946;28;20119;-63
2023/05/20 07:02:59;;;;;;;4.00;1.55;;;;;;;;;;2089657;28;20025;-63
2023/05/20 07:04:18;;;;;;;1.55;0.70;;;;;;;;;;2090595;28;20521;-63
2023/05/20 07:05:37;;;;;;;2.70;0.95;;;;;;;;;;2090226;28;20029;-63
2023/05/20 07:06:56;;;;;;;2.45;1.00;;;;;;;;;;2092502;28;20405;-62
2023/05/20 07:08:15;;;;;;;2.20;1.10;;;;;;;;;;2090282;28;20443;-63
2023/05/20 07:09:34;;;;;;;3.03;1.23;;;;;;;;;;2092591;28;20029;-63
2023/05/20 07:10:56;;;;;;;3.92;1.77;;;;;;;;;;2089497;28;20021;-63
2023/05/20 07:12:15;;;;;;;1.80;1.38;;;;;;;;;;2087380;28;20029;-63
2023/05/20 07:13:34;;;;;;;1.70;0.90;;;;;;;;;;2093318;28;20056;-62
2023/05/20 07:14:53;;;;;;;3.42;1.30;;;;;;;;;;2092709;28;20029;-63
2023/05/20 07:16:12;;;;;;;1.67;1.27;;;;;;;;;;2089206;28;20024;-62
2023/05/20 07:17:31;;;;;;;2.30;1.17;;;;;;;;;;2091333;28;20032;-63
2023/05/20 07:18:50;;;;;;;2.40;1.00;;;;;;;;;;2088402;28;20029;-62
2023/05/20 07:20:10;;;;;;;1.38;0.80;;;;;;;;;;2092009;28;20028;-62
2023/05/20 07:21:29;;;;;;;1.75;1.00;;;;;;;;;;2092454;28;20040;-62
2023/05/20 07:22:49;;;;;;;1.85;0.75;;;;;;;;;;2087134;28;20052;-62
2023/05/20 07:24:08;;;;;;;2.05;1.13;;;;;;;;;;2088839;28;20029;-62
2023/05/20 07:25:27;;;;;;;3.92;0.93;;;;;;;;;;2091575;28;20025;-62
2023/05/20 07:26:46;;;;;;;5.50;1.13;;;;;;;;;;2091078;28;20025;-62
2023/05/20 07:28:05;;;;;;;3.10;0.98;;;;;;;;;;2089412;28;20044;-61
2023/05/20 07:29:24;;;;;;;4.25;1.05;;;;;;;;;;2094335;28;20481;-63
2023/05/20 07:30:49;;;;;;;2.13;0.95;;;;;;;;;;2090821;28;20111;-61
2023/05/20 07:32:09;;;;;;;3.45;0.90;;;;;;;;;;2092633;28;20029;-62
2023/05/20 07:33:28;;;;;;;2.50;1.02;;;;;;;;;;2090368;28;20385;-61
2023/05/20 07:34:47;;;;;;;2.45;1.05;;;;;;;;;;2091339;28;20037;-61
2023/05/20 07:36:06;;;;;;;1.17;0.90;;;;;;;;;;2091345;28;20773;-62
2023/05/20 07:37:25;;;;;;;3.45;0.80;;;;;;;;;;2090729;28;20021;-62
2023/05/20 07:38:44;;;;;;;1.45;1.00;;;;;;;;;;2090211;28;20025;-62
2023/05/20 07:40:04;;;;;;;2.10;0.82;;;;;;;;;;2090287;28;20107;-62
2023/05/20 07:41:23;;;;;;;2.08;1.05;;;;;;;;;;2091332;28;20020;-62
2023/05/20 07:42:42;;;;;;;1.67;0.85;;;;;;;;;;2092828;28;20029;-62
2023/05/20 07:44:04;;;;;;;1.85;1.08;;;;;;;;;;2092375;28;20089;-62
2023/05/20 07:45:23;;;;;;;2.90;0.90;;;;;;;;;;2090890;28;20025;-62
2023/05/20 07:46:43;;;;;;;1.67;0.73;;;;;;;;;;2083924;28;20028;-63
2023/05/20 07:48:02;;;;;;;3.55;1.20;;;;;;;;;;2093856;28;20028;-62
2023/05/20 07:49:21;;;;;;;1.90;0.85;;;;;;;;;;2093416;28;20029;-63
2023/05/20 07:50:40;;;;;;;3.50;1.00;;;;;;;;;;2094609;28;20024;-63
2023/05/20 07:52:00;;;;;;;1.67;0.98;;;;;;;;;;2090394;28;20041;-62
2023/05/20 07:53:19;;;;;;;2.72;1.13;;;;;;;;;;2090003;28;20605;-63
2023/05/20 07:54:38;;;;;;;1.17;0.82;;;;;;;;;;2086864;28;20037;-63
2023/05/20 07:55:56;;;;;;;1.20;1.08;;;;;;;;;;2091743;28;20033;-63